sensor_id;sensor_type;location;lat;lon;timestamp;P1;durP1;ratioP1;P2;durP2;ratioP2
39728;SDS011;25402;42.004;23.088;2022-09-16T00:01:21;6.68;;;2.92;;
39728;SDS011;25402;42.004;23.088;2022-09-16T00:03:52;7.45;;;2.30;;
39728;SDS011;25402;42.004;23.088;2022-09-16T00:06:20;14.63;;;3.10;;
39728;SDS011;25402;42.004;23.088;2022-09-16T00:08:50;8.27;;;2.38;;
39728;SDS011;25402;42.004;23.088;2022-09-16T00:11:19;9.70;;;2.50;;
39728;SDS011;25402;42.004;23.088;2022-09-16T00:13:47;6.30;;;2.17;;
39728;SDS011;25402;42.004;23.088;2022-09-16T00:16:16;5.93;;;2.13;;
39728;SDS011;25402;42.004;23.088;2022-09-16T00:18:44;6.35;;;2.35;;
39728;SDS011;25402;42.004;23.088;2022-09-16T00:21:13;4.82;;;2.25;;
39728;SDS011;25402;42.004;23.088;2022-09-16T00:23:40;8.60;;;2.78;;
39728;SDS011;25402;42.004;23.088;2022-09-16T00:26:07;3.85;;;2.17;;
39728;SDS011;25402;42.004;23.088;2022-09-16T00:28:35;8.90;;;2.25;;
39728;SDS011;25402;42.004;23.088;2022-09-16T00:31:02;9.35;;;2.50;;
39728;SDS011;25402;42.004;23.088;2022-09-16T00:33:30;3.70;;;2.28;;
39728;SDS011;25402;42.004;23.088;2022-09-16T00:36:08;7.47;;;2.67;;
39728;SDS011;25402;42.004;23.088;2022-09-16T00:38:38;8.48;;;2.50;;
39728;SDS011;25402;42.004;23.088;2022-09-16T00:41:06;5.60;;;2.13;;
39728;SDS011;25402;42.004;23.088;2022-09-16T00:43:47;4.85;;;2.40;;
39728;SDS011;25402;42.004;23.088;2022-09-16T00:46:16;4.90;;;2.58;;
39728;SDS011;25402;42.004;23.088;2022-09-16T00:48:46;5.88;;;2.33;;
39728;SDS011;25402;42.004;23.088;2022-09-16T00:51:14;8.93;;;2.75;;
39728;SDS011;25402;42.004;23.088;2022-09-16T00:53:44;5.97;;;2.45;;
39728;SDS011;25402;42.004;23.088;2022-09-16T00:56:16;6.43;;;2.60;;
39728;SDS011;25402;42.004;23.088;2022-09-16T00:58:48;6.00;;;2.40;;
39728;SDS011;25402;42.004;23.088;2022-09-16T01:01:19;6.95;;;2.40;;
39728;SDS011;25402;42.004;23.088;2022-09-16T01:03:48;4.88;;;2.47;;
39728;SDS011;25402;42.004;23.088;2022-09-16T01:06:18;5.38;;;2.10;;
39728;SDS011;25402;42.004;23.088;2022-09-16T01:08:50;6.82;;;2.50;;
39728;SDS011;25402;42.004;23.088;2022-09-16T01:11:17;4.65;;;2.70;;
39728;SDS011;25402;42.004;23.088;2022-09-16T01:13:44;9.43;;;2.65;;
39728;SDS011;25402;42.004;23.088;2022-09-16T01:16:13;9.65;;;2.42;;
39728;SDS011;25402;42.004;23.088;2022-09-16T01:18:47;5.18;;;2.55;;
39728;SDS011;25402;42.004;23.088;2022-09-16T01:21:24;10.38;;;3.00;;
39728;SDS011;25402;42.004;23.088;2022-09-16T01:27:06;6.88;;;2.50;;
39728;SDS011;25402;42.004;23.088;2022-09-16T01:32:46;8.50;;;2.85;;
39728;SDS011;25402;42.004;23.088;2022-09-16T01:35:33;7.82;;;3.10;;
39728;SDS011;25402;42.004;23.088;2022-09-16T01:38:16;10.23;;;2.92;;
39728;SDS011;25402;42.004;23.088;2022-09-16T01:40:56;10.37;;;3.30;;
39728;SDS011;25402;42.004;23.088;2022-09-16T01:43:41;13.45;;;3.40;;
39728;SDS011;25402;42.004;23.088;2022-09-16T01:46:19;10.68;;;2.88;;
39728;SDS011;25402;42.004;23.088;2022-09-16T01:48:54;12.32;;;2.78;;
39728;SDS011;25402;42.004;23.088;2022-09-16T01:51:27;8.43;;;2.90;;
39728;SDS011;25402;42.004;23.088;2022-09-16T01:54:02;6.10;;;2.45;;
39728;SDS011;25402;42.004;23.088;2022-09-16T01:56:36;9.05;;;2.45;;
39728;SDS011;25402;42.004;23.088;2022-09-16T01:59:09;8.77;;;2.45;;
39728;SDS011;25402;42.004;23.088;2022-09-16T02:01:42;5.10;;;2.42;;
39728;SDS011;25402;42.004;23.088;2022-09-16T02:04:14;9.52;;;2.60;;
39728;SDS011;25402;42.004;23.088;2022-09-16T02:06:44;6.43;;;2.47;;
39728;SDS011;25402;42.004;23.088;2022-09-16T02:09:15;6.00;;;2.95;;
39728;SDS011;25402;42.004;23.088;2022-09-16T02:11:47;11.68;;;3.05;;
39728;SDS011;25402;42.004;23.088;2022-09-16T02:14:18;9.75;;;2.83;;
39728;SDS011;25402;42.004;23.088;2022-09-16T02:16:50;6.20;;;2.50;;
39728;SDS011;25402;42.004;23.088;2022-09-16T02:19:24;9.63;;;2.70;;
39728;SDS011;25402;42.004;23.088;2022-09-16T02:24:24;8.93;;;2.55;;
39728;SDS011;25402;42.004;23.088;2022-09-16T02:26:54;9.73;;;2.88;;
39728;SDS011;25402;42.004;23.088;2022-09-16T02:29:26;12.07;;;3.00;;
39728;SDS011;25402;42.004;23.088;2022-09-16T02:31:58;12.30;;;2.97;;
39728;SDS011;25402;42.004;23.088;2022-09-16T02:34:31;45.30;;;3.75;;
39728;SDS011;25402;42.004;23.088;2022-09-16T02:37:03;12.77;;;3.35;;
39728;SDS011;25402;42.004;23.088;2022-09-16T02:39:34;13.23;;;3.35;;
39728;SDS011;25402;42.004;23.088;2022-09-16T02:42:04;16.20;;;3.80;;
39728;SDS011;25402;42.004;23.088;2022-09-16T02:44:32;7.60;;;3.38;;
39728;SDS011;25402;42.004;23.088;2022-09-16T02:47:01;12.07;;;3.63;;
39728;SDS011;25402;42.004;23.088;2022-09-16T02:49:37;14.98;;;3.50;;
39728;SDS011;25402;42.004;23.088;2022-09-16T02:52:11;48.63;;;6.38;;
39728;SDS011;25402;42.004;23.088;2022-09-16T02:54:49;12.45;;;3.53;;
39728;SDS011;25402;42.004;23.088;2022-09-16T02:57:20;11.77;;;3.53;;
39728;SDS011;25402;42.004;23.088;2022-09-16T02:59:47;20.13;;;3.10;;
39728;SDS011;25402;42.004;23.088;2022-09-16T03:02:15;8.85;;;3.47;;
39728;SDS011;25402;42.004;23.088;2022-09-16T03:04:44;11.85;;;3.00;;
39728;SDS011;25402;42.004;23.088;2022-09-16T03:07:11;10.18;;;3.08;;
39728;SDS011;25402;42.004;23.088;2022-09-16T03:09:40;8.88;;;3.28;;
39728;SDS011;25402;42.004;23.088;2022-09-16T03:12:13;14.23;;;3.40;;
39728;SDS011;25402;42.004;23.088;2022-09-16T03:15:01;6.10;;;3.25;;
39728;SDS011;25402;42.004;23.088;2022-09-16T03:17:53;20.17;;;4.43;;
39728;SDS011;25402;42.004;23.088;2022-09-16T03:20:36;32.67;;;3.53;;
39728;SDS011;25402;42.004;23.088;2022-09-16T03:23:14;11.18;;;3.65;;
39728;SDS011;25402;42.004;23.088;2022-09-16T03:25:50;8.60;;;3.90;;
39728;SDS011;25402;42.004;23.088;2022-09-16T03:28:27;14.02;;;4.68;;
39728;SDS011;25402;42.004;23.088;2022-09-16T03:31:02;17.40;;;4.45;;
39728;SDS011;25402;42.004;23.088;2022-09-16T03:33:34;18.20;;;5.22;;
39728;SDS011;25402;42.004;23.088;2022-09-16T03:36:08;20.20;;;4.45;;
39728;SDS011;25402;42.004;23.088;2022-09-16T03:38:40;22.17;;;5.65;;
39728;SDS011;25402;42.004;23.088;2022-09-16T03:41:08;24.33;;;5.05;;
39728;SDS011;25402;42.004;23.088;2022-09-16T03:43:36;21.35;;;4.70;;
39728;SDS011;25402;42.004;23.088;2022-09-16T03:46:05;15.30;;;4.90;;
39728;SDS011;25402;42.004;23.088;2022-09-16T03:48:35;10.68;;;4.90;;
39728;SDS011;25402;42.004;23.088;2022-09-16T03:51:01;24.27;;;5.25;;
39728;SDS011;25402;42.004;23.088;2022-09-16T03:53:30;18.35;;;4.53;;
39728;SDS011;25402;42.004;23.088;2022-09-16T03:55:57;11.10;;;4.25;;
39728;SDS011;25402;42.004;23.088;2022-09-16T03:58:24;12.63;;;4.22;;
39728;SDS011;25402;42.004;23.088;2022-09-16T04:00:51;19.52;;;5.15;;
39728;SDS011;25402;42.004;23.088;2022-09-16T04:03:18;22.95;;;5.97;;
39728;SDS011;25402;42.004;23.088;2022-09-16T04:05:45;27.98;;;13.15;;
39728;SDS011;25402;42.004;23.088;2022-09-16T04:08:11;8.10;;;4.20;;
39728;SDS011;25402;42.004;23.088;2022-09-16T04:10:40;14.13;;;5.47;;
39728;SDS011;25402;42.004;23.088;2022-09-16T04:13:07;7.25;;;3.60;;
39728;SDS011;25402;42.004;23.088;2022-09-16T04:15:35;28.95;;;6.05;;
39728;SDS011;25402;42.004;23.088;2022-09-16T04:18:03;15.25;;;5.93;;
39728;SDS011;25402;42.004;23.088;2022-09-16T04:20:30;18.98;;;6.13;;
39728;SDS011;25402;42.004;23.088;2022-09-16T04:22:58;13.10;;;4.13;;
39728;SDS011;25402;42.004;23.088;2022-09-16T04:25:25;11.55;;;3.85;;
39728;SDS011;25402;42.004;23.088;2022-09-16T04:27:54;17.92;;;5.50;;
39728;SDS011;25402;42.004;23.088;2022-09-16T04:30:21;14.02;;;5.03;;
39728;SDS011;25402;42.004;23.088;2022-09-16T04:32:51;15.70;;;5.80;;
39728;SDS011;25402;42.004;23.088;2022-09-16T04:35:18;21.77;;;6.15;;
39728;SDS011;25402;42.004;23.088;2022-09-16T04:37:45;22.55;;;6.00;;
39728;SDS011;25402;42.004;23.088;2022-09-16T04:40:13;20.30;;;4.18;;
39728;SDS011;25402;42.004;23.088;2022-09-16T04:42:41;16.88;;;5.13;;
39728;SDS011;25402;42.004;23.088;2022-09-16T04:45:14;24.73;;;7.93;;
39728;SDS011;25402;42.004;23.088;2022-09-16T04:47:42;30.50;;;8.85;;
39728;SDS011;25402;42.004;23.088;2022-09-16T04:50:09;42.83;;;13.30;;
39728;SDS011;25402;42.004;23.088;2022-09-16T04:52:36;71.20;;;11.93;;
39728;SDS011;25402;42.004;23.088;2022-09-16T04:55:04;33.25;;;9.10;;
39728;SDS011;25402;42.004;23.088;2022-09-16T04:57:31;59.78;;;14.15;;
39728;SDS011;25402;42.004;23.088;2022-09-16T04:59:59;48.75;;;11.63;;
39728;SDS011;25402;42.004;23.088;2022-09-16T05:02:28;31.33;;;9.75;;
39728;SDS011;25402;42.004;23.088;2022-09-16T05:04:55;61.22;;;14.02;;
39728;SDS011;25402;42.004;23.088;2022-09-16T05:07:22;43.03;;;9.02;;
39728;SDS011;25402;42.004;23.088;2022-09-16T05:09:49;45.30;;;6.93;;
39728;SDS011;25402;42.004;23.088;2022-09-16T05:12:16;19.42;;;5.43;;
39728;SDS011;25402;42.004;23.088;2022-09-16T05:14:43;37.15;;;12.50;;
39728;SDS011;25402;42.004;23.088;2022-09-16T05:17:11;72.03;;;12.32;;
39728;SDS011;25402;42.004;23.088;2022-09-16T05:19:40;31.58;;;7.13;;
39728;SDS011;25402;42.004;23.088;2022-09-16T05:22:07;25.35;;;4.05;;
39728;SDS011;25402;42.004;23.088;2022-09-16T05:24:47;15.90;;;3.70;;
39728;SDS011;25402;42.004;23.088;2022-09-16T05:27:14;11.15;;;3.13;;
39728;SDS011;25402;42.004;23.088;2022-09-16T05:29:41;19.23;;;5.93;;
39728;SDS011;25402;42.004;23.088;2022-09-16T05:32:08;25.73;;;8.25;;
39728;SDS011;25402;42.004;23.088;2022-09-16T05:34:35;35.85;;;8.63;;
39728;SDS011;25402;42.004;23.088;2022-09-16T05:37:04;21.13;;;7.00;;
39728;SDS011;25402;42.004;23.088;2022-09-16T05:39:31;43.85;;;8.02;;
39728;SDS011;25402;42.004;23.088;2022-09-16T05:41:58;25.75;;;7.28;;
39728;SDS011;25402;42.004;23.088;2022-09-16T05:44:25;34.17;;;7.93;;
39728;SDS011;25402;42.004;23.088;2022-09-16T05:46:53;21.75;;;6.97;;
39728;SDS011;25402;42.004;23.088;2022-09-16T05:49:21;22.08;;;5.03;;
39728;SDS011;25402;42.004;23.088;2022-09-16T05:51:48;16.80;;;3.88;;
39728;SDS011;25402;42.004;23.088;2022-09-16T05:54:17;9.13;;;3.03;;
39728;SDS011;25402;42.004;23.088;2022-09-16T05:56:48;20.02;;;3.42;;
39728;SDS011;25402;42.004;23.088;2022-09-16T05:59:15;17.45;;;2.88;;
39728;SDS011;25402;42.004;23.088;2022-09-16T06:01:43;9.57;;;2.90;;
39728;SDS011;25402;42.004;23.088;2022-09-16T06:04:12;13.43;;;3.20;;
39728;SDS011;25402;42.004;23.088;2022-09-16T06:06:41;11.93;;;2.65;;
39728;SDS011;25402;42.004;23.088;2022-09-16T06:09:10;15.93;;;3.20;;
39728;SDS011;25402;42.004;23.088;2022-09-16T06:11:40;14.35;;;3.05;;
39728;SDS011;25402;42.004;23.088;2022-09-16T06:14:09;12.90;;;3.40;;
39728;SDS011;25402;42.004;23.088;2022-09-16T06:16:37;9.43;;;2.80;;
39728;SDS011;25402;42.004;23.088;2022-09-16T06:19:05;9.00;;;2.92;;
39728;SDS011;25402;42.004;23.088;2022-09-16T06:21:34;7.57;;;2.60;;
39728;SDS011;25402;42.004;23.088;2022-09-16T06:24:02;6.53;;;2.80;;
39728;SDS011;25402;42.004;23.088;2022-09-16T06:26:33;13.30;;;3.17;;
39728;SDS011;25402;42.004;23.088;2022-09-16T06:29:03;9.50;;;2.92;;
39728;SDS011;25402;42.004;23.088;2022-09-16T06:31:31;11.07;;;2.92;;
39728;SDS011;25402;42.004;23.088;2022-09-16T06:34:00;12.07;;;3.25;;
39728;SDS011;25402;42.004;23.088;2022-09-16T06:36:28;32.40;;;3.65;;
39728;SDS011;25402;42.004;23.088;2022-09-16T06:38:57;11.90;;;2.40;;
39728;SDS011;25402;42.004;23.088;2022-09-16T06:41:24;14.43;;;2.63;;
39728;SDS011;25402;42.004;23.088;2022-09-16T06:43:51;6.32;;;2.85;;
39728;SDS011;25402;42.004;23.088;2022-09-16T06:46:20;12.65;;;2.80;;
39728;SDS011;25402;42.004;23.088;2022-09-16T06:48:52;16.90;;;2.55;;
39728;SDS011;25402;42.004;23.088;2022-09-16T06:51:21;9.98;;;3.03;;
39728;SDS011;25402;42.004;23.088;2022-09-16T06:53:51;8.40;;;2.38;;
39728;SDS011;25402;42.004;23.088;2022-09-16T06:56:20;11.25;;;2.85;;
39728;SDS011;25402;42.004;23.088;2022-09-16T06:58:48;9.50;;;2.67;;
39728;SDS011;25402;42.004;23.088;2022-09-16T07:01:17;9.73;;;2.38;;
39728;SDS011;25402;42.004;23.088;2022-09-16T07:03:48;11.18;;;2.92;;
39728;SDS011;25402;42.004;23.088;2022-09-16T07:06:17;5.28;;;2.65;;
39728;SDS011;25402;42.004;23.088;2022-09-16T07:08:46;7.50;;;2.70;;
39728;SDS011;25402;42.004;23.088;2022-09-16T07:11:14;12.57;;;4.00;;
39728;SDS011;25402;42.004;23.088;2022-09-16T07:13:43;19.60;;;8.25;;
39728;SDS011;25402;42.004;23.088;2022-09-16T07:16:12;15.07;;;4.70;;
39728;SDS011;25402;42.004;23.088;2022-09-16T07:18:42;15.60;;;2.97;;
39728;SDS011;25402;42.004;23.088;2022-09-16T07:21:10;12.00;;;2.90;;
39728;SDS011;25402;42.004;23.088;2022-09-16T07:23:38;11.25;;;3.33;;
39728;SDS011;25402;42.004;23.088;2022-09-16T07:26:06;9.63;;;2.83;;
39728;SDS011;25402;42.004;23.088;2022-09-16T07:28:36;109.18;;;6.28;;
39728;SDS011;25402;42.004;23.088;2022-09-16T07:31:05;15.23;;;3.55;;
39728;SDS011;25402;42.004;23.088;2022-09-16T07:33:35;16.00;;;2.97;;
39728;SDS011;25402;42.004;23.088;2022-09-16T07:36:05;12.52;;;2.90;;
39728;SDS011;25402;42.004;23.088;2022-09-16T07:38:34;11.13;;;3.20;;
39728;SDS011;25402;42.004;23.088;2022-09-16T07:41:04;7.80;;;2.58;;
39728;SDS011;25402;42.004;23.088;2022-09-16T07:43:32;11.45;;;2.70;;
39728;SDS011;25402;42.004;23.088;2022-09-16T07:45:59;9.90;;;2.80;;
39728;SDS011;25402;42.004;23.088;2022-09-16T07:48:27;9.48;;;2.65;;
39728;SDS011;25402;42.004;23.088;2022-09-16T07:50:55;9.88;;;2.95;;
39728;SDS011;25402;42.004;23.088;2022-09-16T07:53:24;14.68;;;3.08;;
39728;SDS011;25402;42.004;23.088;2022-09-16T07:55:53;14.55;;;2.70;;
39728;SDS011;25402;42.004;23.088;2022-09-16T07:58:20;9.30;;;2.95;;
39728;SDS011;25402;42.004;23.088;2022-09-16T08:00:48;7.60;;;2.78;;
39728;SDS011;25402;42.004;23.088;2022-09-16T08:03:15;8.70;;;2.83;;
39728;SDS011;25402;42.004;23.088;2022-09-16T08:05:43;12.27;;;2.95;;
39728;SDS011;25402;42.004;23.088;2022-09-16T08:08:10;7.35;;;2.80;;
39728;SDS011;25402;42.004;23.088;2022-09-16T08:10:41;7.63;;;3.00;;
39728;SDS011;25402;42.004;23.088;2022-09-16T08:13:09;9.70;;;2.90;;
39728;SDS011;25402;42.004;23.088;2022-09-16T08:15:36;8.73;;;2.63;;
39728;SDS011;25402;42.004;23.088;2022-09-16T08:18:03;9.20;;;3.05;;
39728;SDS011;25402;42.004;23.088;2022-09-16T08:20:30;11.02;;;2.60;;
39728;SDS011;25402;42.004;23.088;2022-09-16T08:22:57;8.45;;;2.67;;
39728;SDS011;25402;42.004;23.088;2022-09-16T08:25:24;15.23;;;2.97;;
39728;SDS011;25402;42.004;23.088;2022-09-16T08:27:52;14.60;;;3.03;;
39728;SDS011;25402;42.004;23.088;2022-09-16T08:30:19;22.48;;;3.55;;
39728;SDS011;25402;42.004;23.088;2022-09-16T08:32:47;10.73;;;2.88;;
39728;SDS011;25402;42.004;23.088;2022-09-16T08:35:13;10.93;;;3.13;;
39728;SDS011;25402;42.004;23.088;2022-09-16T08:37:41;8.35;;;2.45;;
39728;SDS011;25402;42.004;23.088;2022-09-16T08:40:12;10.93;;;3.00;;
39728;SDS011;25402;42.004;23.088;2022-09-16T08:42:47;13.50;;;2.97;;
39728;SDS011;25402;42.004;23.088;2022-09-16T08:45:25;15.13;;;2.97;;
39728;SDS011;25402;42.004;23.088;2022-09-16T08:48:06;13.30;;;3.67;;
39728;SDS011;25402;42.004;23.088;2022-09-16T08:50:46;14.73;;;3.22;;
39728;SDS011;25402;42.004;23.088;2022-09-16T08:53:16;9.70;;;3.08;;
39728;SDS011;25402;42.004;23.088;2022-09-16T08:55:48;10.15;;;3.10;;
39728;SDS011;25402;42.004;23.088;2022-09-16T08:58:19;18.08;;;3.28;;
39728;SDS011;25402;42.004;23.088;2022-09-16T09:00:51;11.63;;;3.25;;
39728;SDS011;25402;42.004;23.088;2022-09-16T09:03:24;17.48;;;3.65;;
39728;SDS011;25402;42.004;23.088;2022-09-16T09:05:59;18.08;;;4.45;;
39728;SDS011;25402;42.004;23.088;2022-09-16T09:08:32;9.75;;;2.50;;
39728;SDS011;25402;42.004;23.088;2022-09-16T09:11:11;7.82;;;2.40;;
39728;SDS011;25402;42.004;23.088;2022-09-16T09:13:49;9.68;;;2.40;;
39728;SDS011;25402;42.004;23.088;2022-09-16T09:16:31;14.23;;;2.83;;
39728;SDS011;25402;42.004;23.088;2022-09-16T09:19:11;8.93;;;2.67;;
39728;SDS011;25402;42.004;23.088;2022-09-16T09:21:50;10.80;;;2.80;;
39728;SDS011;25402;42.004;23.088;2022-09-16T09:24:36;26.95;;;11.82;;
39728;SDS011;25402;42.004;23.088;2022-09-16T09:27:14;25.75;;;7.03;;
39728;SDS011;25402;42.004;23.088;2022-09-16T09:29:49;25.45;;;7.90;;
39728;SDS011;25402;42.004;23.088;2022-09-16T09:32:26;27.15;;;4.63;;
39728;SDS011;25402;42.004;23.088;2022-09-16T09:35:07;15.82;;;5.53;;
39728;SDS011;25402;42.004;23.088;2022-09-16T09:40:44;18.90;;;2.92;;
39728;SDS011;25402;42.004;23.088;2022-09-16T09:43:18;15.15;;;3.88;;
39728;SDS011;25402;42.004;23.088;2022-09-16T09:45:52;9.85;;;2.60;;
39728;SDS011;25402;42.004;23.088;2022-09-16T09:48:26;18.55;;;7.60;;
39728;SDS011;25402;42.004;23.088;2022-09-16T09:50:58;16.98;;;4.32;;
39728;SDS011;25402;42.004;23.088;2022-09-16T09:56:03;40.85;;;19.55;;
39728;SDS011;25402;42.004;23.088;2022-09-16T09:58:42;32.43;;;14.13;;
39728;SDS011;25402;42.004;23.088;2022-09-16T10:01:17;14.95;;;2.90;;
39728;SDS011;25402;42.004;23.088;2022-09-16T10:03:44;13.88;;;3.45;;
39728;SDS011;25402;42.004;23.088;2022-09-16T10:06:13;12.15;;;3.15;;
39728;SDS011;25402;42.004;23.088;2022-09-16T10:08:42;21.95;;;3.70;;
39728;SDS011;25402;42.004;23.088;2022-09-16T10:11:15;16.52;;;3.05;;
39728;SDS011;25402;42.004;23.088;2022-09-16T10:13:46;17.13;;;3.15;;
39728;SDS011;25402;42.004;23.088;2022-09-16T10:16:16;12.18;;;3.35;;
39728;SDS011;25402;42.004;23.088;2022-09-16T10:18:52;13.70;;;3.08;;
39728;SDS011;25402;42.004;23.088;2022-09-16T10:21:35;10.43;;;2.65;;
39728;SDS011;25402;42.004;23.088;2022-09-16T10:24:18;16.45;;;2.60;;
39728;SDS011;25402;42.004;23.088;2022-09-16T10:26:58;18.35;;;3.33;;
39728;SDS011;25402;42.004;23.088;2022-09-16T10:29:27;11.85;;;3.15;;
39728;SDS011;25402;42.004;23.088;2022-09-16T10:31:56;22.70;;;3.38;;
39728;SDS011;25402;42.004;23.088;2022-09-16T10:34:31;13.88;;;3.88;;
39728;SDS011;25402;42.004;23.088;2022-09-16T10:37:00;20.23;;;3.25;;
39728;SDS011;25402;42.004;23.088;2022-09-16T10:39:31;43.42;;;3.05;;
39728;SDS011;25402;42.004;23.088;2022-09-16T10:41:58;48.72;;;4.03;;
39728;SDS011;25402;42.004;23.088;2022-09-16T10:44:28;25.80;;;3.03;;
39728;SDS011;25402;42.004;23.088;2022-09-16T10:46:59;19.70;;;2.42;;
39728;SDS011;25402;42.004;23.088;2022-09-16T10:49:33;12.85;;;2.60;;
39728;SDS011;25402;42.004;23.088;2022-09-16T10:52:16;15.60;;;2.70;;
39728;SDS011;25402;42.004;23.088;2022-09-16T10:54:44;17.58;;;2.88;;
39728;SDS011;25402;42.004;23.088;2022-09-16T10:57:22;24.52;;;3.10;;
39728;SDS011;25402;42.004;23.088;2022-09-16T10:59:58;27.92;;;3.63;;
39728;SDS011;25402;42.004;23.088;2022-09-16T11:05:30;9.35;;;2.13;;
39728;SDS011;25402;42.004;23.088;2022-09-16T11:08:07;24.77;;;3.05;;
39728;SDS011;25402;42.004;23.088;2022-09-16T11:10:44;23.92;;;3.60;;
39728;SDS011;25402;42.004;23.088;2022-09-16T11:13:25;28.98;;;3.75;;
39728;SDS011;25402;42.004;23.088;2022-09-16T11:16:08;24.73;;;3.80;;
39728;SDS011;25402;42.004;23.088;2022-09-16T11:18:51;20.33;;;3.17;;
39728;SDS011;25402;42.004;23.088;2022-09-16T11:21:33;21.25;;;3.13;;
39728;SDS011;25402;42.004;23.088;2022-09-16T11:27:19;15.57;;;2.88;;
39728;SDS011;25402;42.004;23.088;2022-09-16T11:30:00;17.70;;;2.85;;
39728;SDS011;25402;42.004;23.088;2022-09-16T11:32:42;14.52;;;2.58;;
39728;SDS011;25402;42.004;23.088;2022-09-16T11:38:28;14.00;;;2.83;;
39728;SDS011;25402;42.004;23.088;2022-09-16T11:41:06;8.70;;;2.20;;
39728;SDS011;25402;42.004;23.088;2022-09-16T11:43:45;10.23;;;2.40;;
39728;SDS011;25402;42.004;23.088;2022-09-16T11:46:27;23.70;;;3.08;;
39728;SDS011;25402;42.004;23.088;2022-09-16T11:49:03;27.73;;;2.58;;
39728;SDS011;25402;42.004;23.088;2022-09-16T11:51:49;46.55;;;4.93;;
39728;SDS011;25402;42.004;23.088;2022-09-16T11:54:34;34.35;;;4.05;;
39728;SDS011;25402;42.004;23.088;2022-09-16T11:57:40;28.17;;;3.85;;
39728;SDS011;25402;42.004;23.088;2022-09-16T12:00:15;22.35;;;3.03;;
39728;SDS011;25402;42.004;23.088;2022-09-16T12:02:45;21.70;;;2.97;;
39728;SDS011;25402;42.004;23.088;2022-09-16T12:05:18;21.08;;;3.30;;
39728;SDS011;25402;42.004;23.088;2022-09-16T12:07:53;13.52;;;2.50;;
39728;SDS011;25402;42.004;23.088;2022-09-16T12:10:38;18.80;;;2.97;;
39728;SDS011;25402;42.004;23.088;2022-09-16T12:13:11;10.70;;;2.30;;
39728;SDS011;25402;42.004;23.088;2022-09-16T12:15:44;22.27;;;2.95;;
39728;SDS011;25402;42.004;23.088;2022-09-16T12:18:18;10.52;;;1.88;;
39728;SDS011;25402;42.004;23.088;2022-09-16T12:21:05;13.32;;;2.38;;
39728;SDS011;25402;42.004;23.088;2022-09-16T12:23:39;14.25;;;2.55;;
39728;SDS011;25402;42.004;23.088;2022-09-16T12:26:12;13.13;;;2.33;;
39728;SDS011;25402;42.004;23.088;2022-09-16T12:28:44;11.20;;;2.45;;
39728;SDS011;25402;42.004;23.088;2022-09-16T12:31:17;16.90;;;2.47;;
39728;SDS011;25402;42.004;23.088;2022-09-16T12:36:19;15.35;;;2.85;;
39728;SDS011;25402;42.004;23.088;2022-09-16T12:38:50;4.13;;;1.70;;
39728;SDS011;25402;42.004;23.088;2022-09-16T12:41:28;12.90;;;2.28;;
39728;SDS011;25402;42.004;23.088;2022-09-16T12:44:21;22.50;;;2.25;;
39728;SDS011;25402;42.004;23.088;2022-09-16T12:47:17;10.10;;;2.22;;
39728;SDS011;25402;42.004;23.088;2022-09-16T12:50:11;14.63;;;2.58;;
39728;SDS011;25402;42.004;23.088;2022-09-16T12:53:06;11.55;;;2.10;;
39728;SDS011;25402;42.004;23.088;2022-09-16T12:56:01;19.10;;;2.00;;
39728;SDS011;25402;42.004;23.088;2022-09-16T12:58:53;15.88;;;1.85;;
39728;SDS011;25402;42.004;23.088;2022-09-16T13:01:41;15.05;;;1.95;;
39728;SDS011;25402;42.004;23.088;2022-09-16T13:04:15;11.60;;;2.40;;
39728;SDS011;25402;42.004;23.088;2022-09-16T13:06:45;12.57;;;2.08;;
39728;SDS011;25402;42.004;23.088;2022-09-16T13:09:21;8.70;;;1.98;;
39728;SDS011;25402;42.004;23.088;2022-09-16T13:11:53;14.32;;;2.08;;
39728;SDS011;25402;42.004;23.088;2022-09-16T13:14:28;21.25;;;2.45;;
39728;SDS011;25402;42.004;23.088;2022-09-16T13:16:58;10.27;;;2.10;;
39728;SDS011;25402;42.004;23.088;2022-09-16T13:19:30;6.97;;;1.60;;
39728;SDS011;25402;42.004;23.088;2022-09-16T13:22:05;6.00;;;1.90;;
39728;SDS011;25402;42.004;23.088;2022-09-16T13:24:47;3.80;;;1.45;;
39728;SDS011;25402;42.004;23.088;2022-09-16T13:27:26;4.88;;;1.80;;
39728;SDS011;25402;42.004;23.088;2022-09-16T13:32:57;11.63;;;2.20;;
39728;SDS011;25402;42.004;23.088;2022-09-16T13:35:39;16.15;;;2.30;;
39728;SDS011;25402;42.004;23.088;2022-09-16T13:38:19;10.88;;;1.55;;
39728;SDS011;25402;42.004;23.088;2022-09-16T13:40:52;5.28;;;1.77;;
39728;SDS011;25402;42.004;23.088;2022-09-16T13:43:27;12.82;;;2.20;;
39728;SDS011;25402;42.004;23.088;2022-09-16T13:46:01;20.70;;;1.77;;
39728;SDS011;25402;42.004;23.088;2022-09-16T13:48:32;16.15;;;2.40;;
39728;SDS011;25402;42.004;23.088;2022-09-16T13:51:14;19.02;;;2.20;;
39728;SDS011;25402;42.004;23.088;2022-09-16T13:53:45;11.57;;;2.50;;
39728;SDS011;25402;42.004;23.088;2022-09-16T13:56:20;16.15;;;2.35;;
39728;SDS011;25402;42.004;23.088;2022-09-16T13:59:16;15.15;;;1.90;;
39728;SDS011;25402;42.004;23.088;2022-09-16T14:02:00;22.30;;;2.40;;
39728;SDS011;25402;42.004;23.088;2022-09-16T14:04:53;14.40;;;2.33;;
39728;SDS011;25402;42.004;23.088;2022-09-16T14:07:37;12.48;;;2.30;;
39728;SDS011;25402;42.004;23.088;2022-09-16T14:10:14;19.90;;;2.20;;
39728;SDS011;25402;42.004;23.088;2022-09-16T14:12:52;8.60;;;1.80;;
39728;SDS011;25402;42.004;23.088;2022-09-16T14:15:25;16.00;;;2.03;;
39728;SDS011;25402;42.004;23.088;2022-09-16T14:17:57;10.77;;;2.00;;
39728;SDS011;25402;42.004;23.088;2022-09-16T14:20:27;9.23;;;2.33;;
39728;SDS011;25402;42.004;23.088;2022-09-16T14:23:02;10.60;;;2.42;;
39728;SDS011;25402;42.004;23.088;2022-09-16T14:25:31;17.02;;;2.80;;
39728;SDS011;25402;42.004;23.088;2022-09-16T14:28:07;7.53;;;2.00;;
39728;SDS011;25402;42.004;23.088;2022-09-16T14:30:45;7.88;;;1.90;;
39728;SDS011;25402;42.004;23.088;2022-09-16T14:33:18;7.53;;;1.88;;
39728;SDS011;25402;42.004;23.088;2022-09-16T14:35:49;8.50;;;2.15;;
39728;SDS011;25402;42.004;23.088;2022-09-16T14:38:19;15.63;;;2.38;;
39728;SDS011;25402;42.004;23.088;2022-09-16T14:40:48;15.05;;;2.78;;
39728;SDS011;25402;42.004;23.088;2022-09-16T14:43:17;12.52;;;3.00;;
39728;SDS011;25402;42.004;23.088;2022-09-16T14:45:47;10.30;;;2.88;;
39728;SDS011;25402;42.004;23.088;2022-09-16T14:48:18;15.48;;;2.63;;
39728;SDS011;25402;42.004;23.088;2022-09-16T14:50:48;13.18;;;2.30;;
39728;SDS011;25402;42.004;23.088;2022-09-16T14:53:23;14.63;;;3.47;;
39728;SDS011;25402;42.004;23.088;2022-09-16T14:55:52;14.68;;;2.42;;
39728;SDS011;25402;42.004;23.088;2022-09-16T14:58:19;14.90;;;2.80;;
39728;SDS011;25402;42.004;23.088;2022-09-16T15:00:49;12.05;;;2.78;;
39728;SDS011;25402;42.004;23.088;2022-09-16T15:03:20;9.25;;;2.75;;
39728;SDS011;25402;42.004;23.088;2022-09-16T15:05:51;9.13;;;2.00;;
39728;SDS011;25402;42.004;23.088;2022-09-16T15:08:21;13.77;;;2.20;;
39728;SDS011;25402;42.004;23.088;2022-09-16T15:10:52;13.00;;;2.28;;
39728;SDS011;25402;42.004;23.088;2022-09-16T15:13:22;30.08;;;2.95;;
39728;SDS011;25402;42.004;23.088;2022-09-16T15:15:52;9.38;;;2.65;;
39728;SDS011;25402;42.004;23.088;2022-09-16T15:18:25;17.45;;;3.15;;
39728;SDS011;25402;42.004;23.088;2022-09-16T15:20:56;9.93;;;2.38;;
39728;SDS011;25402;42.004;23.088;2022-09-16T15:23:30;13.15;;;2.40;;
39728;SDS011;25402;42.004;23.088;2022-09-16T15:26:04;10.57;;;2.58;;